Time;durP1;ratioP1;P1;durP2;ratioP2;P2;SDS_P1;SDS_P2;PMS_P1;PMS_P2;Temp;Humidity;BMP_temperature;BMP_pressure;BME280_temperature;BME280_humidity;BME280_pressure;Samples;Min_cycle;Max_cycle;Signal;HPM_P1;HPM_P2
2022/11/12 00:02:36;;;;;;;26.85;17.15;;;5.70;99.90;;;;;;5042955;28;20717;-66
2022/11/12 00:05:21;;;;;;;23.95;15.20;;;5.60;99.90;;;;;;5042399;28;20123;-65
2022/11/12 00:08:07;;;;;;;33.45;16.52;;;5.60;99.90;;;;;;5043165;28;20055;-65
2022/11/12 00:10:52;;;;;;;36.13;15.60;;;5.50;99.90;;;;;;5043210;28;20059;-65
2022/11/12 00:13:38;;;;;;;35.35;14.80;;;5.50;99.90;;;;;;5043855;28;20056;-65
2022/11/12 00:16:23;;;;;;;27.27;13.60;;;5.50;99.90;;;;;;5045587;28;20909;-65
2022/11/12 00:19:09;;;;;;;21.77;14.63;;;5.40;99.90;;;;;;5041470;28;20055;-65
2022/11/12 00:21:54;;;;;;;25.60;15.77;;;5.30;99.90;;;;;;5042025;28;20179;-65
2022/11/12 00:24:40;;;;;;;29.55;16.73;;;5.30;99.90;;;;;;5040066;28;20791;-64
2022/11/12 00:27:25;;;;;;;23.20;15.80;;;5.20;99.90;;;;;;5040602;28;20063;-65
2022/11/12 00:30:11;;;;;;;29.10;16.45;;;5.20;99.90;;;;;;5041344;28;20056;-64
2022/11/12 00:33:00;;;;;;;25.52;16.20;;;5.20;99.90;;;;;;5040573;28;20628;-64
2022/11/12 00:35:45;;;;;;;29.88;17.15;;;5.10;99.90;;;;;;5043482;28;20482;-65
2022/11/12 00:38:30;;;;;;;29.45;17.65;;;5.10;99.90;;;;;;5047771;28;20071;-64
2022/11/12 00:41:16;;;;;;;27.60;15.88;;;5.10;99.90;;;;;;5043910;28;20048;-65
2022/11/12 00:44:02;;;;;;;31.27;17.80;;;5.10;99.90;;;;;;5044053;28;20063;-64
2022/11/12 00:46:47;;;;;;;30.90;18.23;;;5.00;99.90;;;;;;5043571;28;20137;-65
2022/11/12 00:49:32;;;;;;;31.17;19.08;;;5.00;99.90;;;;;;5044183;28;20048;-65
2022/11/12 00:52:18;;;;;;;26.02;16.65;;;5.00;99.90;;;;;;5043379;28;20086;-65
2022/11/12 00:55:04;;;;;;;38.00;16.90;;;5.10;99.90;;;;;;5045663;28;20048;-65
2022/11/12 00:57:49;;;;;;;24.42;16.00;;;5.00;99.90;;;;;;5047054;28;20059;-64
2022/11/12 01:00:35;;;;;;;23.73;15.60;;;5.00;99.90;;;;;;5056448;28;20161;-65
2022/11/12 01:03:20;;;;;;;20.80;14.23;;;5.00;99.90;;;;;;5047239;28;20103;-64
2022/11/12 01:06:08;;;;;;;16.13;11.50;;;4.90;99.90;;;;;;5046046;28;20337;-64
2022/11/12 01:08:54;;;;;;;12.45;10.40;;;4.90;99.90;;;;;;5045397;28;21003;-65
2022/11/12 01:11:40;;;;;;;13.48;9.48;;;4.80;99.90;;;;;;5042970;28;20076;-64
2022/11/12 01:14:25;;;;;;;24.48;12.23;;;4.80;99.90;;;;;;5042570;28;20081;-64
2022/11/12 01:17:10;;;;;;;15.45;10.82;;;4.70;99.90;;;;;;5041679;28;20806;-65
2022/11/12 01:19:56;;;;;;;16.30;10.27;;;4.70;99.90;;;;;;5041541;28;20506;-64
2022/11/12 01:22:41;;;;;;;15.48;10.10;;;4.70;99.90;;;;;;5041260;28;20171;-65
2022/11/12 01:25:27;;;;;;;15.13;10.80;;;4.60;99.90;;;;;;5045452;28;20096;-64
2022/11/12 01:28:12;;;;;;;15.07;10.35;;;4.60;99.90;;;;;;5044678;28;20056;-65
2022/11/12 01:31:12;;;;;;;14.88;9.32;;;4.60;99.90;;;;;;5046001;28;20750;-65
2022/11/12 01:34:00;;;;;;;17.52;9.55;;;4.50;99.90;;;;;;5044027;28;20144;-65
2022/11/12 01:36:46;;;;;;;12.52;8.32;;;4.40;99.90;;;;;;5045465;28;20052;-64
2022/11/12 01:39:31;;;;;;;10.70;7.43;;;4.40;99.90;;;;;;5044601;28;20067;-65
2022/11/12 01:42:17;;;;;;;8.77;6.65;;;4.30;99.90;;;;;;5043776;28;20761;-65
2022/11/12 01:45:14;;;;;;;11.18;6.63;;;4.20;99.90;;;;;;5044083;28;20222;-65
2022/11/12 01:48:01;;;;;;;10.15;7.63;;;4.10;99.90;;;;;;5041078;28;20060;-65
2022/11/12 01:50:46;;;;;;;11.75;7.28;;;4.00;99.90;;;;;;5042841;28;20052;-65
2022/11/12 01:53:37;;;;;;;9.65;7.03;;;4.00;99.90;;;;;;5042581;28;20105;-65
2022/11/12 01:56:29;;;;;;;17.13;8.55;;;3.90;99.90;;;;;;5042652;28;20048;-65
2022/11/12 01:59:31;;;;;;;11.40;7.70;;;3.90;99.90;;;;;;5042705;28;20048;-64
2022/11/12 02:02:17;;;;;;;9.77;7.13;;;3.80;99.90;;;;;;5043715;28;20071;-64
2022/11/12 02:05:07;;;;;;;9.73;6.63;;;3.80;99.90;;;;;;5046754;28;20659;-65
2022/11/12 02:07:54;;;;;;;11.07;7.22;;;3.80;99.90;;;;;;5027598;28;20581;-66
2022/11/12 02:10:39;;;;;;;13.68;8.57;;;3.80;99.90;;;;;;5040534;28;20627;-66
2022/11/12 02:16:34;;;;;;;15.32;10.63;;;3.80;99.90;;;;;;5045589;28;20056;-65
2022/11/12 02:19:20;;;;;;;18.63;11.02;;;3.80;99.90;;;;;;5044404;28;20055;-65
2022/11/12 02:22:05;;;;;;;17.13;9.57;;;3.80;99.90;;;;;;5040013;28;20052;-64
2022/11/12 02:24:51;;;;;;;18.52;10.30;;;3.80;99.90;;;;;;5043669;28;20052;-64
2022/11/12 02:27:37;;;;;;;24.60;11.85;;;3.80;99.90;;;;;;5041511;28;20060;-65
2022/11/12 02:30:35;;;;;;;17.70;10.35;;;3.80;99.90;;;;;;5029393;28;20060;-65
2022/11/12 02:33:21;;;;;;;18.85;11.45;;;3.80;99.90;;;;;;5045163;28;20056;-65
2022/11/12 02:36:06;;;;;;;23.42;12.32;;;3.80;99.90;;;;;;5045589;28;20060;-64
2022/11/12 02:38:52;;;;;;;24.05;12.43;;;3.80;99.90;;;;;;5042360;28;20114;-64
2022/11/12 02:41:37;;;;;;;18.60;11.68;;;3.90;99.90;;;;;;5041298;28;20064;-65
2022/11/12 02:44:23;;;;;;;19.52;11.45;;;3.80;99.90;;;;;;5042446;28;20060;-64
2022/11/12 02:47:08;;;;;;;16.40;10.35;;;3.90;99.90;;;;;;5041273;28;20066;-64
2022/11/12 02:49:54;;;;;;;18.67;10.55;;;3.90;99.90;;;;;;5041895;28;20134;-64
2022/11/12 02:52:39;;;;;;;20.38;9.40;;;3.90;99.90;;;;;;5042138;28;20048;-65
2022/11/12 02:55:25;;;;;;;20.05;10.65;;;3.90;99.90;;;;;;5042878;28;20146;-64
2022/11/12 02:58:10;;;;;;;21.77;12.35;;;3.90;99.90;;;;;;5030413;28;20047;-64
2022/11/12 03:00:56;;;;;;;17.70;9.90;;;3.90;99.90;;;;;;5040596;28;20190;-65
2022/11/12 03:03:41;;;;;;;18.60;9.45;;;3.80;99.90;;;;;;5042807;28;20135;-66
2022/11/12 03:06:27;;;;;;;19.92;10.48;;;3.80;99.90;;;;;;5045430;28;20106;-65
2022/11/12 03:09:12;;;;;;;18.30;8.35;;;3.80;99.90;;;;;;5039738;28;20059;-64
2022/11/12 03:11:58;;;;;;;12.88;7.82;;;3.80;99.90;;;;;;5041495;28;20105;-65
2022/11/12 03:14:44;;;;;;;17.85;8.48;;;3.70;99.90;;;;;;5041602;28;20056;-64
2022/11/12 03:17:29;;;;;;;13.77;7.47;;;3.70;99.90;;;;;;5043844;28;20105;-64
2022/11/12 03:20:15;;;;;;;15.07;7.80;;;3.60;99.90;;;;;;5041651;28;20080;-65
2022/11/12 03:23:03;;;;;;;15.25;7.10;;;3.60;99.90;;;;;;5039469;28;20075;-65
2022/11/12 03:25:48;;;;;;;;;;;3.50;99.90;;;;;;5043316;28;20063;-64
2022/11/12 03:28:33;;;;;;;12.70;7.13;;;3.40;99.90;;;;;;5035379;28;19978;-65
2022/11/12 03:31:19;;;;;;;13.50;8.57;;;3.40;99.90;;;;;;5042724;28;20060;-65
2022/11/12 03:34:04;;;;;;;16.73;9.75;;;3.40;99.90;;;;;;5044707;28;20071;-65
2022/11/12 03:36:50;;;;;;;16.13;10.70;;;3.40;99.90;;;;;;5043012;28;20813;-65
2022/11/12 03:39:35;;;;;;;15.20;10.20;;;3.40;99.90;;;;;;5043495;28;20079;-64
2022/11/12 03:42:21;;;;;;;13.95;9.77;;;3.40;99.90;;;;;;5040908;28;20178;-64
2022/11/12 03:45:06;;;;;;;14.40;10.25;;;3.40;99.90;;;;;;5039264;28;20616;-64
2022/11/12 03:47:55;;;;;;;15.20;10.88;;;3.40;99.90;;;;;;5038916;28;20064;-64
2022/11/12 03:50:40;;;;;;;18.58;12.65;;;3.40;99.90;;;;;;5039729;28;20058;-64
2022/11/12 03:53:26;;;;;;;67.03;13.45;;;3.30;99.90;;;;;;5042497;28;20058;-65
2022/11/12 03:56:11;;;;;;;14.45;9.90;;;3.30;99.90;;;;;;5041787;28;20059;-65
2022/11/12 03:58:57;;;;;;;16.33;9.57;;;3.30;99.90;;;;;;5043754;28;20891;-64
2022/11/12 04:01:42;;;;;;;11.15;7.90;;;3.20;99.90;;;;;;5039728;28;20611;-64
2022/11/12 04:08:34;;;;;;;33.97;11.90;;;3.20;99.90;;;;;;5041802;28;20078;-64
2022/11/12 04:10:38;;;;;;;28.95;11.15;;;3.10;99.90;;;;;;5041371;28;20137;-64
2022/11/12 04:13:26;;;;;;;13.57;10.25;;;3.10;99.90;;;;;;5040712;28;20656;-65
2022/11/12 04:22:22;;;;;;;13.73;9.93;;;3.00;99.90;;;;;;5040421;28;20099;-65
2022/11/12 04:28:11;;;;;;;47.00;16.25;;;3.00;99.90;;;;;;5040823;28;20063;-65
2022/11/12 04:30:57;;;;;;;23.30;16.08;;;3.10;99.90;;;;;;5041733;28;20153;-64
2022/11/12 04:33:42;;;;;;;29.20;17.83;;;3.10;99.90;;;;;;5038573;28;20083;-64
2022/11/12 04:36:28;;;;;;;32.42;18.85;;;3.30;99.90;;;;;;5040512;28;20056;-65
2022/11/12 04:39:13;;;;;;;32.30;19.60;;;3.30;99.90;;;;;;5042451;28;20076;-65
2022/11/12 04:45:08;;;;;;;30.75;18.70;;;3.50;99.90;;;;;;5039190;28;20179;-65
2022/11/12 04:47:54;;;;;;;27.88;17.38;;;3.60;99.90;;;;;;5042224;28;20251;-64
2022/11/12 04:50:41;;;;;;;54.40;16.00;;;3.70;99.90;;;;;;5039654;28;20724;-65
2022/11/12 04:53:28;;;;;;;98.03;15.43;;;3.70;99.90;;;;;;5041740;28;20055;-65
2022/11/12 04:56:13;;;;;;;36.25;14.57;;;3.70;99.90;;;;;;5041236;28;21084;-65
2022/11/12 04:58:58;;;;;;;35.13;13.77;;;3.70;99.90;;;;;;5043103;28;20064;-65
2022/11/12 05:01:44;;;;;;;18.80;13.60;;;3.60;99.90;;;;;;5039644;28;20198;-64
2022/11/12 05:04:29;;;;;;;38.63;14.23;;;3.60;99.90;;;;;;5039687;28;20132;-64
2022/11/12 05:07:16;;;;;;;21.73;13.95;;;3.50;99.90;;;;;;5040931;28;20078;-64
2022/11/12 05:10:01;;;;;;;24.35;14.45;;;3.50;99.90;;;;;;5038641;28;20080;-64
2022/11/12 05:12:46;;;;;;;21.08;13.02;;;3.50;99.90;;;;;;5041615;28;20090;-64
2022/11/12 05:15:32;;;;;;;19.63;12.57;;;3.50;99.90;;;;;;5038629;28;20517;-65
2022/11/12 05:18:17;;;;;;;21.73;13.25;;;3.50;99.90;;;;;;5039806;28;20126;-64
2022/11/12 05:22:04;;;;;;;21.88;13.10;;;3.60;99.90;;;;;;5041885;28;20423;-65
2022/11/12 05:24:08;;;;;;;21.25;12.90;;;3.60;99.90;;;;;;5040042;28;20113;-64
2022/11/12 05:27:19;;;;;;;24.45;13.82;;;3.70;99.90;;;;;;5042759;28;20048;-65
2022/11/12 05:30:05;;;;;;;22.88;13.23;;;3.70;99.90;;;;;;5045633;28;20086;-64
2022/11/12 05:32:50;;;;;;;34.38;14.05;;;3.70;99.90;;;;;;5045756;28;20048;-64
2022/11/12 05:35:36;;;;;;;29.67;15.45;;;3.80;99.90;;;;;;5042288;28;20052;-65
2022/11/12 05:38:21;;;;;;;38.33;15.25;;;3.80;99.90;;;;;;5044789;28;20071;-64
2022/11/12 05:41:06;;;;;;;72.35;16.10;;;3.90;99.90;;;;;;5044502;28;20514;-64
2022/11/12 05:43:52;;;;;;;29.33;13.98;;;3.90;99.90;;;;;;5043065;28;20114;-64
2022/11/12 05:46:37;;;;;;;33.65;16.75;;;3.90;99.90;;;;;;5043763;28;20575;-64
2022/11/12 05:49:23;;;;;;;49.38;17.88;;;3.90;99.90;;;;;;5038126;28;20048;-63
2022/11/12 05:52:08;;;;;;;36.42;13.30;;;4.00;99.90;;;;;;5045647;28;20180;-64
2022/11/12 05:54:54;;;;;;;35.80;12.02;;;4.00;99.90;;;;;;5044197;28;20063;-65
2022/11/12 05:57:39;;;;;;;33.88;13.38;;;4.00;99.90;;;;;;5044037;28;20415;-64
2022/11/12 06:00:24;;;;;;;42.08;14.23;;;4.00;99.90;;;;;;5043765;28;20059;-63
2022/11/12 06:03:11;;;;;;;43.83;16.25;;;4.00;99.90;;;;;;5044731;28;20419;-64
2022/11/12 06:05:56;;;;;;;49.10;17.70;;;4.00;99.90;;;;;;5041410;28;20051;-64
2022/11/12 06:08:41;;;;;;;43.35;16.63;;;4.10;99.90;;;;;;5042872;28;20157;-67
2022/11/12 06:11:27;;;;;;;47.92;17.27;;;4.10;99.90;;;;;;5030903;28;20084;-67
2022/11/12 06:14:12;;;;;;;60.22;20.92;;;4.10;99.90;;;;;;5044522;28;20047;-66
2022/11/12 06:16:58;;;;;;;52.65;18.67;;;4.10;99.90;;;;;;5041670;28;20067;-67
2022/11/12 06:19:43;;;;;;;57.10;20.60;;;4.20;99.90;;;;;;5041071;28;20126;-66
2022/11/12 06:22:29;;;;;;;52.08;17.70;;;4.20;99.90;;;;;;5043898;28;20056;-66
2022/11/12 06:25:15;;;;;;;39.20;14.52;;;4.20;99.90;;;;;;5038445;28;20435;-66
2022/11/12 06:28:00;;;;;;;24.67;11.18;;;4.20;99.90;;;;;;5038002;28;20059;-67
2022/11/12 06:30:45;;;;;;;26.27;10.20;;;4.20;99.90;;;;;;5042871;28;20067;-65
2022/11/12 06:33:31;;;;;;;18.25;8.68;;;4.20;99.90;;;;;;5041735;28;20060;-67
2022/11/12 06:36:19;;;;;;;24.45;10.73;;;4.20;99.90;;;;;;5040718;28;20430;-67
2022/11/12 06:39:04;;;;;;;33.70;12.82;;;4.20;99.90;;;;;;5041775;28;20638;-66
2022/11/12 06:41:50;;;;;;;31.55;13.05;;;4.20;99.90;;;;;;5042003;28;20403;-67
2022/11/12 06:44:35;;;;;;;47.55;15.88;;;4.30;99.90;;;;;;5043103;28;20757;-66
2022/11/12 06:47:20;;;;;;;46.55;17.00;;;4.30;99.90;;;;;;5040954;28;20088;-66
2022/11/12 06:50:06;;;;;;;37.75;16.33;;;4.30;99.90;;;;;;5039136;28;20059;-69
